sensor_id;sensor_type;location;lat;lon;timestamp;P1;durP1;ratioP1;P2;durP2;ratioP2
34585;SDS011;20816;50.950;11.108;2023-04-07T00:02:05;6.67;;;3.50;;
34585;SDS011;20816;50.950;11.108;2023-04-07T00:04:31;7.00;;;3.63;;
34585;SDS011;20816;50.950;11.108;2023-04-07T00:06:58;6.70;;;3.20;;
34585;SDS011;20816;50.950;11.108;2023-04-07T00:09:25;5.57;;;3.20;;
34585;SDS011;20816;50.950;11.108;2023-04-07T00:11:51;8.50;;;3.60;;
34585;SDS011;20816;50.950;11.108;2023-04-07T00:14:18;5.60;;;3.63;;
34585;SDS011;20816;50.950;11.108;2023-04-07T00:16:45;5.57;;;3.00;;
34585;SDS011;20816;50.950;11.108;2023-04-07T00:19:11;7.97;;;3.27;;
34585;SDS011;20816;50.950;11.108;2023-04-07T00:21:38;3.90;;;2.83;;
34585;SDS011;20816;50.950;11.108;2023-04-07T00:24:05;7.30;;;3.20;;
34585;SDS011;20816;50.950;11.108;2023-04-07T00:26:32;4.97;;;3.37;;
34585;SDS011;20816;50.950;11.108;2023-04-07T00:28:58;5.90;;;3.60;;
34585;SDS011;20816;50.950;11.108;2023-04-07T00:31:25;3.77;;;2.23;;
34585;SDS011;20816;50.950;11.108;2023-04-07T00:33:52;6.00;;;3.27;;
34585;SDS011;20816;50.950;11.108;2023-04-07T00:36:21;6.27;;;2.83;;
34585;SDS011;20816;50.950;11.108;2023-04-07T00:38:48;5.90;;;3.00;;
34585;SDS011;20816;50.950;11.108;2023-04-07T00:41:14;6.03;;;3.17;;
34585;SDS011;20816;50.950;11.108;2023-04-07T00:43:42;7.87;;;3.37;;
34585;SDS011;20816;50.950;11.108;2023-04-07T00:46:09;6.17;;;2.33;;
34585;SDS011;20816;50.950;11.108;2023-04-07T00:48:36;5.07;;;3.23;;
34585;SDS011;20816;50.950;11.108;2023-04-07T00:51:03;4.50;;;2.87;;
34585;SDS011;20816;50.950;11.108;2023-04-07T00:53:30;6.00;;;3.37;;
34585;SDS011;20816;50.950;11.108;2023-04-07T00:55:57;5.83;;;3.07;;
34585;SDS011;20816;50.950;11.108;2023-04-07T00:58:24;5.33;;;2.87;;
34585;SDS011;20816;50.950;11.108;2023-04-07T01:00:53;3.53;;;2.33;;
34585;SDS011;20816;50.950;11.108;2023-04-07T01:03:31;6.57;;;2.93;;
34585;SDS011;20816;50.950;11.108;2023-04-07T01:06:02;5.20;;;2.63;;
34585;SDS011;20816;50.950;11.108;2023-04-07T01:08:34;10.20;;;3.40;;
34585;SDS011;20816;50.950;11.108;2023-04-07T01:11:08;13.47;;;3.50;;
34585;SDS011;20816;50.950;11.108;2023-04-07T01:13:47;6.27;;;3.10;;
34585;SDS011;20816;50.950;11.108;2023-04-07T01:16:22;8.40;;;3.77;;
34585;SDS011;20816;50.950;11.108;2023-04-07T01:18:53;5.17;;;3.27;;
34585;SDS011;20816;50.950;11.108;2023-04-07T01:21:24;9.03;;;4.03;;
34585;SDS011;20816;50.950;11.108;2023-04-07T01:24:02;6.57;;;4.07;;
34585;SDS011;20816;50.950;11.108;2023-04-07T01:26:44;7.47;;;4.57;;
34585;SDS011;20816;50.950;11.108;2023-04-07T01:29:26;4.50;;;3.23;;
34585;SDS011;20816;50.950;11.108;2023-04-07T01:32:01;6.33;;;4.03;;
34585;SDS011;20816;50.950;11.108;2023-04-07T01:34:30;7.90;;;3.87;;
34585;SDS011;20816;50.950;11.108;2023-04-07T01:36:58;5.67;;;3.80;;
34585;SDS011;20816;50.950;11.108;2023-04-07T01:39:27;7.30;;;3.77;;
34585;SDS011;20816;50.950;11.108;2023-04-07T01:41:54;7.60;;;4.97;;
34585;SDS011;20816;50.950;11.108;2023-04-07T01:44:23;8.33;;;4.87;;
34585;SDS011;20816;50.950;11.108;2023-04-07T01:46:51;5.97;;;3.93;;
34585;SDS011;20816;50.950;11.108;2023-04-07T01:49:20;11.30;;;4.53;;
34585;SDS011;20816;50.950;11.108;2023-04-07T01:51:48;6.13;;;3.33;;
34585;SDS011;20816;50.950;11.108;2023-04-07T01:54:17;8.23;;;4.03;;
34585;SDS011;20816;50.950;11.108;2023-04-07T01:56:44;6.40;;;3.40;;
34585;SDS011;20816;50.950;11.108;2023-04-07T01:59:11;6.20;;;3.10;;
34585;SDS011;20816;50.950;11.108;2023-04-07T02:01:38;7.23;;;3.67;;
34585;SDS011;20816;50.950;11.108;2023-04-07T02:06:58;9.87;;;4.83;;
34585;SDS011;20816;50.950;11.108;2023-04-07T02:09:30;5.93;;;3.03;;
34585;SDS011;20816;50.950;11.108;2023-04-07T02:11:59;4.37;;;2.80;;
34585;SDS011;20816;50.950;11.108;2023-04-07T02:14:27;6.13;;;3.13;;
34585;SDS011;20816;50.950;11.108;2023-04-07T02:16:55;6.77;;;3.00;;
34585;SDS011;20816;50.950;11.108;2023-04-07T02:19:22;4.53;;;2.80;;
34585;SDS011;20816;50.950;11.108;2023-04-07T02:21:49;5.50;;;4.13;;
34585;SDS011;20816;50.950;11.108;2023-04-07T02:24:20;4.20;;;2.20;;
34585;SDS011;20816;50.950;11.108;2023-04-07T02:26:47;5.37;;;3.07;;
34585;SDS011;20816;50.950;11.108;2023-04-07T02:29:14;6.40;;;2.73;;
34585;SDS011;20816;50.950;11.108;2023-04-07T02:31:40;5.90;;;3.20;;
34585;SDS011;20816;50.950;11.108;2023-04-07T02:34:07;6.43;;;2.90;;
34585;SDS011;20816;50.950;11.108;2023-04-07T02:36:34;3.40;;;2.90;;
34585;SDS011;20816;50.950;11.108;2023-04-07T02:39:01;5.60;;;3.57;;
34585;SDS011;20816;50.950;11.108;2023-04-07T02:41:28;5.83;;;2.70;;
34585;SDS011;20816;50.950;11.108;2023-04-07T02:43:54;5.83;;;3.07;;
34585;SDS011;20816;50.950;11.108;2023-04-07T02:46:22;6.67;;;2.60;;
34585;SDS011;20816;50.950;11.108;2023-04-07T02:48:48;4.60;;;3.17;;
34585;SDS011;20816;50.950;11.108;2023-04-07T02:51:15;7.37;;;4.07;;
34585;SDS011;20816;50.950;11.108;2023-04-07T02:53:42;4.80;;;2.87;;
34585;SDS011;20816;50.950;11.108;2023-04-07T02:56:09;4.77;;;2.93;;
34585;SDS011;20816;50.950;11.108;2023-04-07T02:58:36;3.80;;;2.43;;
34585;SDS011;20816;50.950;11.108;2023-04-07T03:01:02;6.37;;;2.97;;
34585;SDS011;20816;50.950;11.108;2023-04-07T03:03:30;2.90;;;2.43;;
34585;SDS011;20816;50.950;11.108;2023-04-07T03:05:57;5.00;;;2.93;;
34585;SDS011;20816;50.950;11.108;2023-04-07T03:08:24;5.20;;;3.33;;
34585;SDS011;20816;50.950;11.108;2023-04-07T03:10:50;4.77;;;2.17;;
34585;SDS011;20816;50.950;11.108;2023-04-07T03:13:17;6.50;;;2.93;;
34585;SDS011;20816;50.950;11.108;2023-04-07T03:15:44;3.90;;;2.77;;
34585;SDS011;20816;50.950;11.108;2023-04-07T03:18:12;6.07;;;2.47;;
34585;SDS011;20816;50.950;11.108;2023-04-07T03:20:39;6.33;;;3.20;;
34585;SDS011;20816;50.950;11.108;2023-04-07T03:23:07;8.13;;;3.87;;
34585;SDS011;20816;50.950;11.108;2023-04-07T03:25:34;5.80;;;2.67;;
34585;SDS011;20816;50.950;11.108;2023-04-07T03:28:01;4.70;;;2.63;;
34585;SDS011;20816;50.950;11.108;2023-04-07T03:30:27;6.67;;;3.07;;
34585;SDS011;20816;50.950;11.108;2023-04-07T03:32:54;4.60;;;2.73;;
34585;SDS011;20816;50.950;11.108;2023-04-07T03:35:21;5.23;;;3.43;;
34585;SDS011;20816;50.950;11.108;2023-04-07T03:37:48;7.20;;;2.73;;
34585;SDS011;20816;50.950;11.108;2023-04-07T03:40:15;6.70;;;3.20;;
34585;SDS011;20816;50.950;11.108;2023-04-07T03:42:42;5.90;;;2.90;;
34585;SDS011;20816;50.950;11.108;2023-04-07T03:45:08;5.77;;;3.13;;
34585;SDS011;20816;50.950;11.108;2023-04-07T03:47:35;6.43;;;3.87;;
34585;SDS011;20816;50.950;11.108;2023-04-07T03:50:02;4.67;;;3.03;;
34585;SDS011;20816;50.950;11.108;2023-04-07T03:52:29;3.13;;;2.07;;
34585;SDS011;20816;50.950;11.108;2023-04-07T03:54:56;5.23;;;3.00;;
34585;SDS011;20816;50.950;11.108;2023-04-07T03:57:22;5.13;;;3.40;;
34585;SDS011;20816;50.950;11.108;2023-04-07T03:59:49;5.00;;;2.87;;
34585;SDS011;20816;50.950;11.108;2023-04-07T04:02:17;9.40;;;4.53;;
34585;SDS011;20816;50.950;11.108;2023-04-07T04:04:44;5.93;;;3.03;;
34585;SDS011;20816;50.950;11.108;2023-04-07T04:07:11;6.87;;;3.70;;
34585;SDS011;20816;50.950;11.108;2023-04-07T04:09:37;5.03;;;3.13;;
34585;SDS011;20816;50.950;11.108;2023-04-07T04:12:04;5.73;;;3.00;;
34585;SDS011;20816;50.950;11.108;2023-04-07T04:14:31;7.50;;;3.67;;
34585;SDS011;20816;50.950;11.108;2023-04-07T04:16:58;4.90;;;2.73;;
34585;SDS011;20816;50.950;11.108;2023-04-07T04:19:24;5.93;;;3.40;;
34585;SDS011;20816;50.950;11.108;2023-04-07T04:21:51;7.90;;;3.50;;
34585;SDS011;20816;50.950;11.108;2023-04-07T04:24:18;3.43;;;2.63;;
34585;SDS011;20816;50.950;11.108;2023-04-07T04:26:44;4.70;;;2.70;;
34585;SDS011;20816;50.950;11.108;2023-04-07T04:29:11;6.13;;;3.23;;
34585;SDS011;20816;50.950;11.108;2023-04-07T04:31:38;4.13;;;2.80;;
34585;SDS011;20816;50.950;11.108;2023-04-07T04:34:05;4.73;;;3.20;;
34585;SDS011;20816;50.950;11.108;2023-04-07T04:36:32;7.07;;;2.80;;
34585;SDS011;20816;50.950;11.108;2023-04-07T04:38:58;3.83;;;3.07;;
34585;SDS011;20816;50.950;11.108;2023-04-07T04:41:25;8.30;;;3.70;;
34585;SDS011;20816;50.950;11.108;2023-04-07T04:43:52;9.37;;;3.53;;
34585;SDS011;20816;50.950;11.108;2023-04-07T04:46:18;4.37;;;3.00;;
34585;SDS011;20816;50.950;11.108;2023-04-07T04:48:45;6.83;;;3.67;;
34585;SDS011;20816;50.950;11.108;2023-04-07T04:51:12;4.73;;;2.90;;
34585;SDS011;20816;50.950;11.108;2023-04-07T04:53:38;7.97;;;3.53;;
34585;SDS011;20816;50.950;11.108;2023-04-07T04:56:06;4.17;;;3.03;;
34585;SDS011;20816;50.950;11.108;2023-04-07T04:58:33;8.97;;;3.60;;
34585;SDS011;20816;50.950;11.108;2023-04-07T05:01:00;5.57;;;2.87;;
34585;SDS011;20816;50.950;11.108;2023-04-07T05:03:27;6.67;;;3.30;;
34585;SDS011;20816;50.950;11.108;2023-04-07T05:05:54;6.30;;;2.90;;
34585;SDS011;20816;50.950;11.108;2023-04-07T05:08:21;10.50;;;4.90;;
34585;SDS011;20816;50.950;11.108;2023-04-07T05:10:48;6.17;;;2.60;;
34585;SDS011;20816;50.950;11.108;2023-04-07T05:13:15;9.83;;;3.10;;
34585;SDS011;20816;50.950;11.108;2023-04-07T05:15:41;5.30;;;2.60;;
34585;SDS011;20816;50.950;11.108;2023-04-07T05:18:08;6.17;;;3.90;;
34585;SDS011;20816;50.950;11.108;2023-04-07T05:20:37;5.73;;;3.30;;
34585;SDS011;20816;50.950;11.108;2023-04-07T05:23:04;4.37;;;2.73;;
34585;SDS011;20816;50.950;11.108;2023-04-07T05:25:31;5.23;;;3.83;;
34585;SDS011;20816;50.950;11.108;2023-04-07T05:27:58;4.23;;;3.20;;
34585;SDS011;20816;50.950;11.108;2023-04-07T05:30:25;8.43;;;3.83;;
34585;SDS011;20816;50.950;11.108;2023-04-07T05:32:52;5.07;;;3.33;;
34585;SDS011;20816;50.950;11.108;2023-04-07T05:35:19;3.47;;;3.10;;
34585;SDS011;20816;50.950;11.108;2023-04-07T05:37:46;7.83;;;3.63;;
34585;SDS011;20816;50.950;11.108;2023-04-07T05:40:12;7.70;;;3.60;;
34585;SDS011;20816;50.950;11.108;2023-04-07T05:42:40;7.10;;;2.80;;
34585;SDS011;20816;50.950;11.108;2023-04-07T05:45:07;7.13;;;3.47;;
34585;SDS011;20816;50.950;11.108;2023-04-07T05:47:35;7.37;;;4.17;;
34585;SDS011;20816;50.950;11.108;2023-04-07T05:50:01;6.87;;;2.97;;
34585;SDS011;20816;50.950;11.108;2023-04-07T05:52:28;6.90;;;3.73;;
34585;SDS011;20816;50.950;11.108;2023-04-07T05:54:55;5.73;;;2.90;;
34585;SDS011;20816;50.950;11.108;2023-04-07T05:57:22;3.67;;;3.07;;
34585;SDS011;20816;50.950;11.108;2023-04-07T05:59:48;5.97;;;3.77;;
34585;SDS011;20816;50.950;11.108;2023-04-07T06:02:15;4.87;;;3.00;;
34585;SDS011;20816;50.950;11.108;2023-04-07T06:04:42;6.53;;;3.27;;
34585;SDS011;20816;50.950;11.108;2023-04-07T06:07:08;4.93;;;3.40;;
34585;SDS011;20816;50.950;11.108;2023-04-07T06:09:35;3.80;;;2.87;;
34585;SDS011;20816;50.950;11.108;2023-04-07T06:12:01;8.20;;;3.47;;
34585;SDS011;20816;50.950;11.108;2023-04-07T06:14:30;5.73;;;3.70;;
34585;SDS011;20816;50.950;11.108;2023-04-07T06:16:57;11.03;;;4.07;;
34585;SDS011;20816;50.950;11.108;2023-04-07T06:19:23;8.70;;;4.30;;
34585;SDS011;20816;50.950;11.108;2023-04-07T06:21:52;8.87;;;4.00;;
34585;SDS011;20816;50.950;11.108;2023-04-07T06:24:19;5.93;;;3.50;;
34585;SDS011;20816;50.950;11.108;2023-04-07T06:26:48;7.07;;;3.97;;
34585;SDS011;20816;50.950;11.108;2023-04-07T06:29:14;6.93;;;3.70;;
34585;SDS011;20816;50.950;11.108;2023-04-07T06:31:41;7.47;;;3.93;;
34585;SDS011;20816;50.950;11.108;2023-04-07T06:34:08;5.80;;;3.93;;
34585;SDS011;20816;50.950;11.108;2023-04-07T06:36:34;6.87;;;3.67;;
34585;SDS011;20816;50.950;11.108;2023-04-07T06:39:01;8.87;;;3.50;;
34585;SDS011;20816;50.950;11.108;2023-04-07T06:41:28;9.40;;;3.97;;
34585;SDS011;20816;50.950;11.108;2023-04-07T06:43:55;6.97;;;4.17;;
34585;SDS011;20816;50.950;11.108;2023-04-07T06:46:21;7.70;;;3.77;;
34585;SDS011;20816;50.950;11.108;2023-04-07T06:48:48;26.93;;;4.60;;
34585;SDS011;20816;50.950;11.108;2023-04-07T06:51:15;8.20;;;4.27;;
34585;SDS011;20816;50.950;11.108;2023-04-07T06:53:42;7.63;;;4.77;;
34585;SDS011;20816;50.950;11.108;2023-04-07T06:56:10;9.47;;;5.03;;
34585;SDS011;20816;50.950;11.108;2023-04-07T06:58:37;5.63;;;3.53;;
34585;SDS011;20816;50.950;11.108;2023-04-07T07:01:04;9.17;;;4.00;;
34585;SDS011;20816;50.950;11.108;2023-04-07T07:03:32;6.57;;;3.80;;
34585;SDS011;20816;50.950;11.108;2023-04-07T07:05:59;11.47;;;5.30;;
34585;SDS011;20816;50.950;11.108;2023-04-07T07:08:27;6.13;;;4.00;;
34585;SDS011;20816;50.950;11.108;2023-04-07T07:10:55;8.00;;;4.33;;
34585;SDS011;20816;50.950;11.108;2023-04-07T07:13:24;10.80;;;4.10;;
34585;SDS011;20816;50.950;11.108;2023-04-07T07:15:52;5.30;;;3.57;;
34585;SDS011;20816;50.950;11.108;2023-04-07T07:18:19;5.93;;;4.00;;
34585;SDS011;20816;50.950;11.108;2023-04-07T07:20:46;7.13;;;4.27;;
34585;SDS011;20816;50.950;11.108;2023-04-07T07:23:12;6.40;;;4.03;;
34585;SDS011;20816;50.950;11.108;2023-04-07T07:25:39;7.97;;;4.23;;
34585;SDS011;20816;50.950;11.108;2023-04-07T07:28:06;10.47;;;5.17;;
34585;SDS011;20816;50.950;11.108;2023-04-07T07:30:32;9.00;;;4.10;;
34585;SDS011;20816;50.950;11.108;2023-04-07T07:32:59;6.33;;;4.10;;
34585;SDS011;20816;50.950;11.108;2023-04-07T07:35:26;8.43;;;4.40;;
34585;SDS011;20816;50.950;11.108;2023-04-07T07:37:52;10.97;;;4.20;;
34585;SDS011;20816;50.950;11.108;2023-04-07T07:40:19;8.27;;;4.33;;
34585;SDS011;20816;50.950;11.108;2023-04-07T07:42:46;9.90;;;3.90;;
34585;SDS011;20816;50.950;11.108;2023-04-07T07:45:12;8.63;;;4.03;;
34585;SDS011;20816;50.950;11.108;2023-04-07T07:47:39;11.47;;;4.10;;
34585;SDS011;20816;50.950;11.108;2023-04-07T07:50:06;7.13;;;3.60;;
34585;SDS011;20816;50.950;11.108;2023-04-07T07:52:33;7.37;;;4.10;;
34585;SDS011;20816;50.950;11.108;2023-04-07T07:55:00;7.83;;;4.07;;
34585;SDS011;20816;50.950;11.108;2023-04-07T07:57:26;6.83;;;3.67;;
34585;SDS011;20816;50.950;11.108;2023-04-07T07:59:53;8.20;;;4.73;;
34585;SDS011;20816;50.950;11.108;2023-04-07T08:02:20;8.83;;;5.10;;
34585;SDS011;20816;50.950;11.108;2023-04-07T08:04:46;9.47;;;4.87;;
34585;SDS011;20816;50.950;11.108;2023-04-07T08:07:13;7.30;;;4.33;;
34585;SDS011;20816;50.950;11.108;2023-04-07T08:09:40;8.33;;;4.73;;
34585;SDS011;20816;50.950;11.108;2023-04-07T08:12:06;10.20;;;5.30;;
34585;SDS011;20816;50.950;11.108;2023-04-07T08:14:33;7.77;;;4.50;;
34585;SDS011;20816;50.950;11.108;2023-04-07T08:16:59;7.13;;;5.07;;
34585;SDS011;20816;50.950;11.108;2023-04-07T08:19:26;8.50;;;4.57;;
34585;SDS011;20816;50.950;11.108;2023-04-07T08:21:53;7.93;;;4.03;;
34585;SDS011;20816;50.950;11.108;2023-04-07T08:24:19;10.13;;;6.60;;
34585;SDS011;20816;50.950;11.108;2023-04-07T08:26:46;9.00;;;5.20;;
34585;SDS011;20816;50.950;11.108;2023-04-07T08:29:13;5.77;;;3.57;;
34585;SDS011;20816;50.950;11.108;2023-04-07T08:31:40;7.90;;;5.10;;
34585;SDS011;20816;50.950;11.108;2023-04-07T08:34:07;11.40;;;5.20;;
34585;SDS011;20816;50.950;11.108;2023-04-07T08:36:33;9.07;;;4.73;;
34585;SDS011;20816;50.950;11.108;2023-04-07T08:39:00;7.50;;;4.30;;
34585;SDS011;20816;50.950;11.108;2023-04-07T08:41:32;9.27;;;4.83;;
34585;SDS011;20816;50.950;11.108;2023-04-07T08:44:02;8.43;;;5.53;;
34585;SDS011;20816;50.950;11.108;2023-04-07T08:46:29;9.97;;;5.50;;
34585;SDS011;20816;50.950;11.108;2023-04-07T08:48:56;9.23;;;5.23;;
34585;SDS011;20816;50.950;11.108;2023-04-07T08:54:15;9.80;;;5.33;;
34585;SDS011;20816;50.950;11.108;2023-04-07T08:56:44;10.00;;;4.87;;
34585;SDS011;20816;50.950;11.108;2023-04-07T08:59:12;10.83;;;5.20;;
34585;SDS011;20816;50.950;11.108;2023-04-07T09:01:41;10.23;;;5.20;;
34585;SDS011;20816;50.950;11.108;2023-04-07T09:04:08;10.40;;;5.77;;
34585;SDS011;20816;50.950;11.108;2023-04-07T09:06:36;14.43;;;7.00;;
34585;SDS011;20816;50.950;11.108;2023-04-07T09:09:03;8.03;;;5.40;;
34585;SDS011;20816;50.950;11.108;2023-04-07T09:11:37;8.83;;;5.70;;
34585;SDS011;20816;50.950;11.108;2023-04-07T09:14:05;8.37;;;5.47;;
34585;SDS011;20816;50.950;11.108;2023-04-07T09:16:33;8.07;;;5.53;;
34585;SDS011;20816;50.950;11.108;2023-04-07T09:19:00;10.27;;;6.03;;
34585;SDS011;20816;50.950;11.108;2023-04-07T09:21:31;11.90;;;6.13;;
34585;SDS011;20816;50.950;11.108;2023-04-07T09:24:20;10.47;;;6.23;;
34585;SDS011;20816;50.950;11.108;2023-04-07T09:26:47;20.43;;;6.20;;
34585;SDS011;20816;50.950;11.108;2023-04-07T09:29:17;11.63;;;5.97;;
34585;SDS011;20816;50.950;11.108;2023-04-07T09:31:48;7.50;;;4.47;;
34585;SDS011;20816;50.950;11.108;2023-04-07T09:34:24;11.40;;;6.40;;
34585;SDS011;20816;50.950;11.108;2023-04-07T09:36:53;10.87;;;5.60;;
34585;SDS011;20816;50.950;11.108;2023-04-07T09:39:20;23.70;;;10.60;;
34585;SDS011;20816;50.950;11.108;2023-04-07T09:41:47;8.97;;;5.73;;
34585;SDS011;20816;50.950;11.108;2023-04-07T09:44:14;9.27;;;5.33;;
34585;SDS011;20816;50.950;11.108;2023-04-07T09:46:50;10.15;;;5.35;;
34585;SDS011;20816;50.950;11.108;2023-04-07T09:49:19;11.32;;;5.68;;
34585;SDS011;20816;50.950;11.108;2023-04-07T09:51:56;8.47;;;4.97;;
34585;SDS011;20816;50.950;11.108;2023-04-07T09:54:31;8.10;;;5.43;;
34585;SDS011;20816;50.950;11.108;2023-04-07T09:57:00;10.77;;;5.80;;
34585;SDS011;20816;50.950;11.108;2023-04-07T09:59:29;9.70;;;5.20;;
34585;SDS011;20816;50.950;11.108;2023-04-07T10:01:57;9.43;;;4.83;;
34585;SDS011;20816;50.950;11.108;2023-04-07T10:04:25;14.30;;;6.38;;
34585;SDS011;20816;50.950;11.108;2023-04-07T10:06:52;10.05;;;4.65;;
34585;SDS011;20816;50.950;11.108;2023-04-07T10:09:21;11.07;;;5.50;;
34585;SDS011;20816;50.950;11.108;2023-04-07T10:11:49;8.20;;;4.90;;
34585;SDS011;20816;50.950;11.108;2023-04-07T10:14:17;10.80;;;5.13;;
34585;SDS011;20816;50.950;11.108;2023-04-07T10:16:46;9.65;;;5.20;;
34585;SDS011;20816;50.950;11.108;2023-04-07T10:19:13;14.80;;;4.45;;
34585;SDS011;20816;50.950;11.108;2023-04-07T10:21:41;10.73;;;4.95;;
34585;SDS011;20816;50.950;11.108;2023-04-07T10:24:14;10.82;;;5.45;;
34585;SDS011;20816;50.950;11.108;2023-04-07T10:26:56;12.20;;;5.72;;
34585;SDS011;20816;50.950;11.108;2023-04-07T10:29:27;11.55;;;5.55;;
34585;SDS011;20816;50.950;11.108;2023-04-07T10:31:58;9.88;;;4.63;;
34585;SDS011;20816;50.950;11.108;2023-04-07T10:37:19;14.35;;;5.57;;
34585;SDS011;20816;50.950;11.108;2023-04-07T10:39:48;9.63;;;6.15;;
34585;SDS011;20816;50.950;11.108;2023-04-07T10:45:02;11.30;;;5.25;;
34585;SDS011;20816;50.950;11.108;2023-04-07T10:47:29;9.02;;;5.38;;
34585;SDS011;20816;50.950;11.108;2023-04-07T10:53:01;8.02;;;4.75;;
34585;SDS011;20816;50.950;11.108;2023-04-07T10:55:37;10.10;;;5.47;;
34585;SDS011;20816;50.950;11.108;2023-04-07T11:06:04;8.38;;;4.55;;
34585;SDS011;20816;50.950;11.108;2023-04-07T11:08:34;23.65;;;4.97;;
34585;SDS011;20816;50.950;11.108;2023-04-07T11:11:06;9.50;;;4.40;;
34585;SDS011;20816;50.950;11.108;2023-04-07T11:13:40;4.78;;;2.65;;
34585;SDS011;20816;50.950;11.108;2023-04-07T11:16:10;7.00;;;2.90;;
34585;SDS011;20816;50.950;11.108;2023-04-07T11:18:38;6.78;;;3.50;;
34585;SDS011;20816;50.950;11.108;2023-04-07T11:21:06;6.00;;;3.55;;
34585;SDS011;20816;50.950;11.108;2023-04-07T11:23:37;7.32;;;3.28;;
34585;SDS011;20816;50.950;11.108;2023-04-07T11:26:05;7.03;;;3.67;;
34585;SDS011;20816;50.950;11.108;2023-04-07T11:28:33;6.45;;;3.90;;
34585;SDS011;20816;50.950;11.108;2023-04-07T11:31:00;4.55;;;2.95;;
34585;SDS011;20816;50.950;11.108;2023-04-07T11:33:28;5.07;;;3.53;;
34585;SDS011;20816;50.950;11.108;2023-04-07T11:35:57;5.57;;;3.38;;
34585;SDS011;20816;50.950;11.108;2023-04-07T11:38:27;6.65;;;3.75;;
34585;SDS011;20816;50.950;11.108;2023-04-07T11:40:55;6.15;;;3.42;;
34585;SDS011;20816;50.950;11.108;2023-04-07T11:48:34;8.13;;;3.30;;
34585;SDS011;20816;50.950;11.108;2023-04-07T11:51:02;5.63;;;3.20;;
34585;SDS011;20816;50.950;11.108;2023-04-07T11:53:30;6.95;;;4.22;;
34585;SDS011;20816;50.950;11.108;2023-04-07T11:56:02;7.22;;;4.55;;
34585;SDS011;20816;50.950;11.108;2023-04-07T11:58:29;6.32;;;3.85;;
34585;SDS011;20816;50.950;11.108;2023-04-07T12:00:56;6.82;;;4.07;;
34585;SDS011;20816;50.950;11.108;2023-04-07T12:03:24;6.43;;;3.35;;
34585;SDS011;20816;50.950;11.108;2023-04-07T12:05:51;7.15;;;3.85;;
34585;SDS011;20816;50.950;11.108;2023-04-07T12:08:18;5.70;;;3.50;;
34585;SDS011;20816;50.950;11.108;2023-04-07T12:10:45;8.80;;;4.18;;
34585;SDS011;20816;50.950;11.108;2023-04-07T12:13:12;9.43;;;5.80;;
34585;SDS011;20816;50.950;11.108;2023-04-07T12:15:39;7.00;;;3.88;;
34585;SDS011;20816;50.950;11.108;2023-04-07T12:18:06;7.47;;;4.47;;
34585;SDS011;20816;50.950;11.108;2023-04-07T12:20:33;5.50;;;3.70;;
34585;SDS011;20816;50.950;11.108;2023-04-07T12:23:02;6.78;;;4.13;;
34585;SDS011;20816;50.950;11.108;2023-04-07T12:25:29;6.75;;;3.80;;
34585;SDS011;20816;50.950;11.108;2023-04-07T12:27:56;7.03;;;4.57;;
34585;SDS011;20816;50.950;11.108;2023-04-07T12:30:22;5.65;;;3.60;;
34585;SDS011;20816;50.950;11.108;2023-04-07T12:32:49;8.80;;;4.32;;
34585;SDS011;20816;50.950;11.108;2023-04-07T12:35:16;7.30;;;5.15;;
34585;SDS011;20816;50.950;11.108;2023-04-07T12:37:42;9.30;;;4.28;;
34585;SDS011;20816;50.950;11.108;2023-04-07T12:40:09;4.43;;;3.58;;
34585;SDS011;20816;50.950;11.108;2023-04-07T12:42:36;7.10;;;4.47;;
34585;SDS011;20816;50.950;11.108;2023-04-07T12:45:03;6.78;;;4.07;;
34585;SDS011;20816;50.950;11.108;2023-04-07T12:47:30;7.57;;;4.65;;
34585;SDS011;20816;50.950;11.108;2023-04-07T12:49:57;7.30;;;4.55;;
34585;SDS011;20816;50.950;11.108;2023-04-07T12:52:24;6.47;;;4.05;;
34585;SDS011;20816;50.950;11.108;2023-04-07T12:54:50;8.25;;;4.75;;
34585;SDS011;20816;50.950;11.108;2023-04-07T12:57:18;4.78;;;3.60;;
34585;SDS011;20816;50.950;11.108;2023-04-07T12:59:45;7.78;;;3.83;;
34585;SDS011;20816;50.950;11.108;2023-04-07T13:02:12;8.63;;;3.78;;
34585;SDS011;20816;50.950;11.108;2023-04-07T13:04:39;8.75;;;4.30;;
34585;SDS011;20816;50.950;11.108;2023-04-07T13:07:08;8.38;;;3.83;;
34585;SDS011;20816;50.950;11.108;2023-04-07T13:09:35;6.82;;;3.45;;
34585;SDS011;20816;50.950;11.108;2023-04-07T13:12:02;6.75;;;3.72;;
34585;SDS011;20816;50.950;11.108;2023-04-07T13:14:29;9.77;;;4.80;;
34585;SDS011;20816;50.950;11.108;2023-04-07T13:16:55;9.88;;;4.70;;
34585;SDS011;20816;50.950;11.108;2023-04-07T13:19:22;8.57;;;4.55;;
34585;SDS011;20816;50.950;11.108;2023-04-07T13:21:48;7.05;;;4.07;;
34585;SDS011;20816;50.950;11.108;2023-04-07T13:24:16;6.05;;;4.13;;
34585;SDS011;20816;50.950;11.108;2023-04-07T13:26:43;6.32;;;4.18;;
34585;SDS011;20816;50.950;11.108;2023-04-07T13:29:09;8.57;;;3.95;;
34585;SDS011;20816;50.950;11.108;2023-04-07T13:31:36;4.93;;;3.83;;
34585;SDS011;20816;50.950;11.108;2023-04-07T13:34:03;6.67;;;3.97;;
34585;SDS011;20816;50.950;11.108;2023-04-07T13:36:30;5.65;;;3.65;;
34585;SDS011;20816;50.950;11.108;2023-04-07T13:38:57;7.20;;;4.70;;
34585;SDS011;20816;50.950;11.108;2023-04-07T13:41:24;4.70;;;3.80;;
34585;SDS011;20816;50.950;11.108;2023-04-07T13:43:52;12.47;;;3.73;;
34585;SDS011;20816;50.950;11.108;2023-04-07T13:46:18;5.00;;;3.57;;
34585;SDS011;20816;50.950;11.108;2023-04-07T13:48:54;6.20;;;3.80;;
34585;SDS011;20816;50.950;11.108;2023-04-07T13:51:21;7.67;;;4.00;;
34585;SDS011;20816;50.950;11.108;2023-04-07T13:53:48;5.03;;;3.30;;
34585;SDS011;20816;50.950;11.108;2023-04-07T13:56:15;7.77;;;3.67;;
34585;SDS011;20816;50.950;11.108;2023-04-07T13:58:41;5.50;;;3.80;;
34585;SDS011;20816;50.950;11.108;2023-04-07T14:01:08;8.33;;;3.80;;
34585;SDS011;20816;50.950;11.108;2023-04-07T14:03:35;6.37;;;4.27;;
34585;SDS011;20816;50.950;11.108;2023-04-07T14:06:01;5.33;;;4.37;;
34585;SDS011;20816;50.950;11.108;2023-04-07T14:08:28;5.77;;;3.73;;
34585;SDS011;20816;50.950;11.108;2023-04-07T14:10:55;6.60;;;3.60;;
34585;SDS011;20816;50.950;11.108;2023-04-07T14:13:22;4.70;;;3.87;;
34585;SDS011;20816;50.950;11.108;2023-04-07T14:15:49;14.37;;;4.13;;
34585;SDS011;20816;50.950;11.108;2023-04-07T14:18:16;5.07;;;3.70;;
34585;SDS011;20816;50.950;11.108;2023-04-07T14:20:43;6.27;;;3.43;;
34585;SDS011;20816;50.950;11.108;2023-04-07T14:23:09;5.17;;;3.77;;
34585;SDS011;20816;50.950;11.108;2023-04-07T14:25:36;5.83;;;3.53;;
34585;SDS011;20816;50.950;11.108;2023-04-07T14:28:03;6.27;;;3.57;;
34585;SDS011;20816;50.950;11.108;2023-04-07T14:30:30;5.73;;;3.63;;
34585;SDS011;20816;50.950;11.108;2023-04-07T14:32:57;4.47;;;3.50;;
34585;SDS011;20816;50.950;11.108;2023-04-07T14:35:23;6.07;;;4.00;;
34585;SDS011;20816;50.950;11.108;2023-04-07T14:37:50;5.00;;;3.33;;
34585;SDS011;20816;50.950;11.108;2023-04-07T14:40:17;5.27;;;3.60;;
34585;SDS011;20816;50.950;11.108;2023-04-07T14:42:46;5.13;;;3.53;;
34585;SDS011;20816;50.950;11.108;2023-04-07T14:45:14;6.73;;;3.57;;
34585;SDS011;20816;50.950;11.108;2023-04-07T14:47:41;6.33;;;3.47;;
34585;SDS011;20816;50.950;11.108;2023-04-07T14:50:07;7.33;;;4.07;;
34585;SDS011;20816;50.950;11.108;2023-04-07T14:52:34;10.80;;;4.57;;
34585;SDS011;20816;50.950;11.108;2023-04-07T14:55:01;5.73;;;3.60;;
34585;SDS011;20816;50.950;11.108;2023-04-07T14:57:28;9.30;;;4.90;;
34585;SDS011;20816;50.950;11.108;2023-04-07T14:59:54;16.23;;;7.17;;
34585;SDS011;20816;50.950;11.108;2023-04-07T15:02:21;8.67;;;4.00;;
34585;SDS011;20816;50.950;11.108;2023-04-07T15:04:48;7.27;;;4.07;;